Time;durP1;ratioP1;P1;durP2;ratioP2;P2;SDS_P1;SDS_P2;PMS_P1;PMS_P2;Temp;Humidity;BMP_temperature;BMP_pressure;BME280_temperature;BME280_humidity;BME280_pressure;Samples;Min_cycle;Max_cycle;Signal;HPM_P1;HPM_P2
2021/07/09 00:02:43;;;;;;;1.90;1.80;;;17.40;93.90;;;;;;5089034;28;20028;-67
2021/07/09 00:05:09;;;;;;;1.70;1.60;;;17.30;93.90;;;;;;5087906;28;20035;-67
2021/07/09 00:07:34;;;;;;;3.22;1.50;;;17.30;93.90;;;;;;5089768;28;20096;-66
2021/07/09 00:10:00;;;;;;;2.28;1.50;;;17.30;93.90;;;;;;5093152;28;20665;-67
2021/07/09 00:12:26;;;;;;;5.10;1.50;;;17.30;93.90;;;;;;5073972;28;20028;-66
2021/07/09 00:14:51;;;;;;;1.70;1.60;;;17.20;94.00;;;;;;5091590;28;20377;-66
2021/07/09 00:17:17;;;;;;;1.65;1.55;;;17.10;94.00;;;;;;5078014;28;20189;-66
2021/07/09 00:19:43;;;;;;;1.70;1.60;;;17.10;94.00;;;;;;5092469;28;20020;-66
2021/07/09 00:22:08;;;;;;;1.60;1.50;;;17.10;94.10;;;;;;5093182;28;20452;-66
2021/07/09 00:24:34;;;;;;;1.40;1.20;;;17.10;94.10;;;;;;5092014;28;20036;-67
2021/07/09 00:27:03;;;;;;;1.60;1.50;;;17.00;94.10;;;;;;5055874;28;20025;-66
2021/07/09 00:29:29;;;;;;;1.52;1.42;;;17.00;94.10;;;;;;5090710;28;20104;-66
2021/07/09 00:31:54;;;;;;;2.92;1.50;;;17.00;94.10;;;;;;5092749;28;20118;-66
2021/07/09 00:34:20;;;;;;;1.60;1.50;;;16.90;94.10;;;;;;5092410;28;20024;-66
2021/07/09 00:36:46;;;;;;;1.73;1.60;;;16.90;94.20;;;;;;5091629;28;20024;-66
2021/07/09 00:39:11;;;;;;;1.77;1.65;;;16.90;94.20;;;;;;5092173;28;20024;-66
2021/07/09 00:41:37;;;;;;;2.20;1.58;;;16.80;94.20;;;;;;5075083;28;20032;-66
2021/07/09 00:44:04;;;;;;;2.15;1.55;;;16.80;94.30;;;;;;5088153;28;20024;-67
2021/07/09 00:46:41;;;;;;;2.08;1.98;;;16.80;94.30;;;;;;5090281;28;20031;-66
2021/07/09 00:49:09;;;;;;;2.28;2.08;;;16.80;94.50;;;;;;5089623;28;20020;-67
2021/07/09 00:51:34;;;;;;;3.45;3.15;;;16.80;94.40;;;;;;5092863;28;20024;-67
2021/07/09 00:54:00;;;;;;;3.10;2.90;;;16.80;94.40;;;;;;5091469;28;20389;-67
2021/07/09 00:56:26;;;;;;;4.10;3.00;;;16.80;94.30;;;;;;5090151;28;20107;-66
2021/07/09 00:58:54;;;;;;;5.03;2.97;;;16.80;94.40;;;;;;5092065;28;20111;-67
2021/07/09 01:01:20;;;;;;;4.07;2.90;;;16.70;94.50;;;;;;5092235;28;20063;-67
2021/07/09 01:03:46;;;;;;;3.45;3.13;;;16.80;94.50;;;;;;5092113;28;20070;-67
2021/07/09 01:06:13;;;;;;;3.55;3.25;;;16.80;94.50;;;;;;5091156;28;20043;-67
2021/07/09 01:08:39;;;;;;;3.03;2.72;;;16.80;94.60;;;;;;5073731;28;20031;-66
2021/07/09 01:11:05;;;;;;;3.03;2.80;;;16.80;94.60;;;;;;5091799;28;20027;-67
2021/07/09 01:13:30;;;;;;;3.70;2.88;;;16.80;94.60;;;;;;5074063;28;20119;-66
2021/07/09 01:15:56;;;;;;;3.42;2.58;;;16.80;94.70;;;;;;5072006;28;20036;-67
2021/07/09 01:18:22;;;;;;;3.17;2.97;;;16.80;94.70;;;;;;5092011;28;20028;-67
2021/07/09 01:20:48;;;;;;;2.78;2.50;;;16.80;94.60;;;;;;5090991;28;20149;-67
2021/07/09 01:23:18;;;;;;;2.92;2.60;;;16.80;94.60;;;;;;5083353;28;20032;-67
2021/07/09 01:25:43;;;;;;;2.83;2.25;;;16.70;94.70;;;;;;5076079;28;20477;-66
2021/07/09 01:28:09;;;;;;;3.03;2.53;;;16.70;94.60;;;;;;5091840;28;20089;-66
2021/07/09 01:30:36;;;;;;;2.55;2.20;;;16.70;94.60;;;;;;5091913;28;20108;-66
2021/07/09 01:33:03;;;;;;;2.47;2.28;;;16.70;94.70;;;;;;5091095;28;20028;-66
2021/07/09 01:35:29;;;;;;;2.20;2.00;;;16.70;94.70;;;;;;5072047;28;20060;-67
2021/07/09 01:38:02;;;;;;;2.42;2.15;;;16.70;94.80;;;;;;5091477;28;20035;-66
2021/07/09 01:40:29;;;;;;;1.90;1.80;;;16.70;94.90;;;;;;5072518;28;20093;-66
2021/07/09 01:42:55;;;;;;;2.47;2.10;;;16.70;94.90;;;;;;5088366;28;20039;-66
2021/07/09 01:45:21;;;;;;;1.90;1.80;;;16.70;94.90;;;;;;5071576;28;20085;-66
2021/07/09 01:47:48;;;;;;;1.88;1.58;;;16.70;94.80;;;;;;5091079;28;20020;-66
2021/07/09 01:50:13;;;;;;;1.80;1.60;;;16.70;94.80;;;;;;5091163;28;20020;-67
2021/07/09 01:52:39;;;;;;;1.45;1.30;;;16.60;94.80;;;;;;5090903;28;20103;-66
2021/07/09 01:55:06;;;;;;;1.25;1.20;;;16.60;94.80;;;;;;5089561;28;20035;-67
2021/07/09 01:57:32;;;;;;;1.38;1.27;;;16.60;94.90;;;;;;5090845;28;20035;-66
2021/07/09 01:59:59;;;;;;;1.17;1.17;;;16.60;95.00;;;;;;5091058;28;20592;-66
2021/07/09 02:02:25;;;;;;;0.85;0.80;;;16.60;95.10;;;;;;5090800;28;20512;-65
2021/07/09 02:04:53;;;;;;;1.00;1.00;;;16.60;95.10;;;;;;5089957;28;20071;-66
2021/07/09 02:07:20;;;;;;;0.80;0.80;;;16.60;95.10;;;;;;5090872;28;20031;-67
2021/07/09 02:09:48;;;;;;;1.80;1.15;;;16.60;95.10;;;;;;5090365;28;20097;-66
2021/07/09 02:12:16;;;;;;;1.10;0.98;;;16.60;95.10;;;;;;5090952;28;20030;-66
2021/07/09 02:14:42;;;;;;;1.15;1.10;;;16.60;95.00;;;;;;5089088;28;20039;-66
2021/07/09 02:17:13;;;;;;;0.93;0.93;;;16.60;95.00;;;;;;5090243;28;20027;-66
2021/07/09 02:19:40;;;;;;;2.67;1.50;;;16.50;95.00;;;;;;5090494;28;20024;-66
2021/07/09 02:22:09;;;;;;;1.98;1.30;;;16.50;95.10;;;;;;5054349;28;20063;-66
2021/07/09 02:24:36;;;;;;;1.70;1.60;;;16.50;95.10;;;;;;5090273;28;20023;-66
2021/07/09 02:27:03;;;;;;;1.25;1.20;;;16.50;95.20;;;;;;5090805;28;20121;-66
2021/07/09 02:29:30;;;;;;;1.80;1.70;;;16.50;95.10;;;;;;5090222;28;20020;-67
2021/07/09 02:31:56;;;;;;;1.67;1.52;;;16.40;95.10;;;;;;5089394;28;20028;-67
2021/07/09 02:34:21;;;;;;;2.47;2.30;;;16.40;95.20;;;;;;5089973;28;20047;-66
2021/07/09 02:36:47;;;;;;;2.38;2.15;;;16.40;95.10;;;;;;5089742;28;20032;-66
2021/07/09 02:39:12;;;;;;;2.47;2.08;;;16.30;95.00;;;;;;5090226;28;20105;-66
2021/07/09 02:41:38;;;;;;;2.60;2.40;;;16.30;95.20;;;;;;5090139;28;20490;-66
2021/07/09 02:44:05;;;;;;;2.35;2.22;;;16.30;95.20;;;;;;5087811;28;20476;-66
2021/07/09 02:46:31;;;;;;;4.20;2.30;;;16.30;95.20;;;;;;5089224;28;20027;-66
2021/07/09 02:48:57;;;;;;;2.00;1.90;;;16.30;95.20;;;;;;5089834;28;20020;-66
2021/07/09 02:51:22;;;;;;;2.88;2.50;;;16.30;95.20;;;;;;5072012;28;20028;-66
2021/07/09 02:53:48;;;;;;;4.22;2.38;;;16.30;95.20;;;;;;5090157;28;20531;-66
2021/07/09 02:56:13;;;;;;;2.67;2.47;;;16.20;95.20;;;;;;5087888;28;20034;-66
2021/07/09 02:58:39;;;;;;;2.50;2.30;;;16.20;95.30;;;;;;5088516;28;20020;-66
2021/07/09 03:01:05;;;;;;;2.45;2.13;;;16.30;95.40;;;;;;5089621;28;20032;-66
2021/07/09 03:03:30;;;;;;;2.90;2.70;;;16.20;95.30;;;;;;5090079;28;20047;-67
2021/07/09 03:05:56;;;;;;;2.53;2.33;;;16.20;95.30;;;;;;5070891;28;20020;-66
2021/07/09 03:08:21;;;;;;;3.33;2.50;;;16.20;95.40;;;;;;5071552;28;20028;-66
2021/07/09 03:10:47;;;;;;;2.55;2.35;;;16.20;95.30;;;;;;5089930;28;20032;-66
2021/07/09 03:13:13;;;;;;;2.45;2.25;;;16.20;95.40;;;;;;5089029;28;20395;-66
2021/07/09 03:15:39;;;;;;;2.97;2.25;;;16.20;95.40;;;;;;5088685;28;20115;-67
2021/07/09 03:18:04;;;;;;;2.83;2.30;;;16.20;95.40;;;;;;5090019;28;20032;-66
2021/07/09 03:20:30;;;;;;;4.10;2.22;;;16.20;95.50;;;;;;5089564;28;20507;-66
2021/07/09 03:22:56;;;;;;;2.30;2.10;;;16.20;95.50;;;;;;5071121;28;20471;-66
2021/07/09 03:25:22;;;;;;;2.42;2.22;;;16.20;95.50;;;;;;5088390;28;20105;-66
2021/07/09 03:27:47;;;;;;;2.08;1.75;;;16.20;95.50;;;;;;5089399;28;20053;-67
2021/07/09 03:30:13;;;;;;;1.58;1.48;;;16.20;95.50;;;;;;5090016;28;20047;-68
2021/07/09 03:32:39;;;;;;;3.88;1.58;;;16.20;95.50;;;;;;5089121;28;20024;-68
2021/07/09 03:35:07;;;;;;;1.30;1.30;;;16.30;95.70;;;;;;5088981;28;20548;-67
2021/07/09 03:37:32;;;;;;;1.20;1.10;;;16.30;95.60;;;;;;5055927;28;20028;-67
2021/07/09 03:39:58;;;;;;;0.80;0.80;;;16.30;95.50;;;;;;5088981;28;20024;-67
2021/07/09 03:42:24;;;;;;;1.52;0.98;;;16.20;95.50;;;;;;5086284;28;20082;-67
2021/07/09 03:44:49;;;;;;;0.73;0.70;;;16.20;95.40;;;;;;5091868;28;20063;-67
2021/07/09 03:47:15;;;;;;;1.58;0.60;;;16.10;95.30;;;;;;5093644;28;20384;-69
2021/07/09 03:49:40;;;;;;;0.80;0.60;;;16.10;95.40;;;;;;5075598;28;20446;-67
2021/07/09 03:52:06;;;;;;;0.40;0.40;;;16.10;95.40;;;;;;5093642;28;20043;-68
2021/07/09 03:54:33;;;;;;;0.60;0.60;;;16.00;95.50;;;;;;5075359;28;20024;-68
2021/07/09 03:56:59;;;;;;;1.67;0.60;;;16.00;95.50;;;;;;5093035;28;20028;-67
2021/07/09 03:59:24;;;;;;;0.50;0.30;;;16.00;95.50;;;;;;5074961;28;20502;-68
2021/07/09 04:01:50;;;;;;;1.40;0.50;;;16.00;95.50;;;;;;5093217;28;20032;-67
2021/07/09 04:04:15;;;;;;;1.20;0.40;;;16.00;95.50;;;;;;5093718;28;20028;-67
2021/07/09 04:06:41;;;;;;;0.57;0.50;;;15.90;95.60;;;;;;5091889;28;20027;-68
2021/07/09 04:09:07;;;;;;;1.58;0.47;;;16.00;95.70;;;;;;5092683;28;20103;-68
2021/07/09 04:11:32;;;;;;;0.43;0.43;;;16.00;95.70;;;;;;5093559;28;20020;-68
2021/07/09 04:13:58;;;;;;;0.52;0.50;;;16.00;95.80;;;;;;5092844;28;20030;-68
2021/07/09 04:16:23;;;;;;;1.00;0.65;;;16.00;95.80;;;;;;5092073;28;20081;-68
2021/07/09 04:18:49;;;;;;;0.63;0.63;;;16.00;95.80;;;;;;5092482;28;20103;-68
2021/07/09 04:21:15;;;;;;;0.68;0.68;;;16.00;95.80;;;;;;5093142;28;20059;-68
2021/07/09 04:23:40;;;;;;;0.77;0.70;;;16.00;95.80;;;;;;5095527;28;20495;-68
2021/07/09 04:26:06;;;;;;;0.82;0.82;;;16.00;95.80;;;;;;5091854;28;20028;-69
2021/07/09 04:28:31;;;;;;;1.80;0.90;;;16.00;95.80;;;;;;5092419;28;20380;-68
2021/07/09 04:30:57;;;;;;;1.23;0.98;;;16.00;95.80;;;;;;5071727;28;20085;-68
2021/07/09 04:33:23;;;;;;;1.42;1.00;;;16.00;95.80;;;;;;5091668;28;20039;-68
2021/07/09 04:35:50;;;;;;;0.70;0.70;;;16.00;95.90;;;;;;5092016;28;20024;-69
2021/07/09 04:38:16;;;;;;;1.15;1.00;;;16.00;95.90;;;;;;5093132;28;20048;-69
2021/07/09 04:40:41;;;;;;;2.03;1.00;;;16.00;95.90;;;;;;5073104;28;20020;-68
2021/07/09 04:43:07;;;;;;;1.20;1.00;;;16.00;95.90;;;;;;5091656;28;20024;-68
2021/07/09 04:45:33;;;;;;;1.00;0.88;;;16.00;95.90;;;;;;5092459;28;20020;-68
2021/07/09 04:47:59;;;;;;;1.00;1.00;;;16.00;95.90;;;;;;5092874;28;20020;-69
2021/07/09 04:50:24;;;;;;;1.27;0.90;;;16.00;95.90;;;;;;5093093;28;20056;-69
2021/07/09 04:52:50;;;;;;;1.95;0.80;;;16.00;96.20;;;;;;5093076;28;20070;-69
2021/07/09 04:55:16;;;;;;;1.05;0.82;;;16.00;95.90;;;;;;5091436;28;20028;-68
2021/07/09 04:57:42;;;;;;;1.50;1.05;;;16.00;95.90;;;;;;5092496;28;20145;-68
2021/07/09 05:00:09;;;;;;;0.90;0.90;;;16.00;95.90;;;;;;5092802;28;20093;-68
2021/07/09 05:02:38;;;;;;;1.10;1.05;;;16.00;95.90;;;;;;5092204;28;20030;-69
2021/07/09 05:05:07;;;;;;;3.40;1.27;;;16.00;95.90;;;;;;5091581;28;20104;-68
2021/07/09 05:07:32;;;;;;;1.08;1.08;;;16.00;95.90;;;;;;5092901;28;20058;-69
2021/07/09 05:09:58;;;;;;;1.00;1.00;;;16.00;95.90;;;;;;5092499;28;20105;-68
2021/07/09 05:12:23;;;;;;;1.73;1.20;;;15.90;95.90;;;;;;5091894;28;20024;-68
2021/07/09 05:14:49;;;;;;;1.80;1.10;;;15.90;95.80;;;;;;5093898;28;20055;-68
2021/07/09 05:17:15;;;;;;;2.20;1.27;;;15.90;95.90;;;;;;5093416;28;20553;-68
2021/07/09 05:19:40;;;;;;;1.25;1.23;;;15.90;95.90;;;;;;5092375;28;20040;-69
2021/07/09 05:22:08;;;;;;;1.77;1.30;;;15.90;95.90;;;;;;5092461;28;20028;-68
2021/07/09 05:24:33;;;;;;;1.35;1.25;;;15.90;96.00;;;;;;5091420;28;20012;-69
2021/07/09 05:26:59;;;;;;;3.38;1.15;;;15.90;95.90;;;;;;5089616;28;20412;-69
2021/07/09 05:29:25;;;;;;;1.40;1.30;;;15.90;95.90;;;;;;5092391;28;20059;-68
2021/07/09 05:31:51;;;;;;;3.47;1.20;;;15.90;95.90;;;;;;5091320;28;20039;-68
2021/07/09 05:34:16;;;;;;;1.08;1.00;;;15.90;96.00;;;;;;5092388;28;20151;-68
2021/07/09 05:36:42;;;;;;;1.30;1.20;;;15.80;95.90;;;;;;5091355;28;20119;-69
2021/07/09 05:39:08;;;;;;;1.13;1.10;;;15.80;95.90;;;;;;5092080;28;20028;-69
2021/07/09 05:41:34;;;;;;;2.55;1.35;;;15.80;95.90;;;;;;5092243;28;20059;-69
2021/07/09 05:43:59;;;;;;;1.38;1.38;;;15.80;96.00;;;;;;5091749;28;20074;-69
2021/07/09 05:46:26;;;;;;;2.03;1.40;;;15.80;96.00;;;;;;5073073;28;20032;-68
2021/07/09 05:48:52;;;;;;;1.48;1.38;;;15.80;96.10;;;;;;5091476;28;20039;-68
2021/07/09 05:51:17;;;;;;;2.70;2.50;;;15.80;96.10;;;;;;5091749;28;20016;-69
2021/07/09 05:53:43;;;;;;;1.58;1.48;;;15.80;96.10;;;;;;5085983;28;20111;-69
2021/07/09 05:56:08;;;;;;;1.10;1.10;;;15.80;96.10;;;;;;5086120;28;20143;-68
2021/07/09 05:58:34;;;;;;;1.95;1.45;;;15.80;96.10;;;;;;5090337;28;20416;-68
2021/07/09 06:00:59;;;;;;;1.40;1.30;;;15.80;96.10;;;;;;5085497;28;20051;-68
2021/07/09 06:03:25;;;;;;;1.50;1.40;;;15.90;96.10;;;;;;5079828;28;20020;-69
2021/07/09 06:05:51;;;;;;;2.05;1.73;;;15.80;96.00;;;;;;5090477;28;20030;-69
2021/07/09 06:08:16;;;;;;;1.63;1.52;;;15.80;96.10;;;;;;5091069;28;20043;-68
2021/07/09 06:10:42;;;;;;;71.72;53.05;;;15.80;96.10;;;;;;5081055;28;20035;-69
2021/07/09 06:13:09;;;;;;;1.15;1.13;;;15.80;96.20;;;;;;5090240;28;20039;-69
2021/07/09 06:15:35;;;;;;;1.30;1.20;;;15.80;96.10;;;;;;5087979;28;20464;-69
2021/07/09 06:18:00;;;;;;;1.20;1.20;;;15.80;96.10;;;;;;5091170;28;20036;-69
2021/07/09 06:20:26;;;;;;;1.25;1.20;;;15.80;96.10;;;;;;5091443;28;20024;-69
2021/07/09 06:22:52;;;;;;;1.85;1.70;;;15.80;96.10;;;;;;5071173;28;20082;-69
2021/07/09 06:25:17;;;;;;;2.55;1.30;;;15.80;96.20;;;;;;5090268;28;20016;-69
2021/07/09 06:27:43;;;;;;;3.45;3.15;;;15.80;96.20;;;;;;5072539;28;20055;-68
2021/07/09 06:30:10;;;;;;;1.33;1.25;;;15.80;96.20;;;;;;5072908;28;20484;-69
2021/07/09 06:32:35;;;;;;;1.20;1.20;;;15.80;96.30;;;;;;5071734;28;20032;-67
2021/07/09 06:35:04;;;;;;;1.25;1.25;;;15.80;96.20;;;;;;5089851;28;20415;-68
2021/07/09 06:37:30;;;;;;;1.40;1.27;;;15.80;96.10;;;;;;5072730;28;20073;-67
2021/07/09 06:39:56;;;;;;;1.33;1.23;;;15.80;96.10;;;;;;5090873;28;20058;-68
2021/07/09 06:42:21;;;;;;;1.27;1.17;;;15.80;96.20;;;;;;5089896;28;20060;-70
2021/07/09 06:44:47;;;;;;;1.42;1.33;;;15.80;96.20;;;;;;5068337;28;20035;-68
2021/07/09 06:47:13;;;;;;;1.42;1.33;;;15.70;96.20;;;;;;5089275;28;20099;-68
2021/07/09 06:49:39;;;;;;;1.60;1.50;;;15.80;96.30;;;;;;5090156;28;20058;-68
2021/07/09 06:52:05;;;;;;;1.48;1.38;;;15.80;96.30;;;;;;5091295;28;20084;-68
2021/07/09 06:54:31;;;;;;;1.92;1.83;;;15.70;96.30;;;;;;5089424;28;20503;-68
2021/07/09 06:56:57;;;;;;;2.00;1.90;;;15.70;96.20;;;;;;5071589;28;20030;-68
2021/07/09 06:59:22;;;;;;;2.10;1.95;;;15.70;96.20;;;;;;5072735;28;20028;-67
2021/07/09 07:01:49;;;;;;;2.50;2.30;;;15.70;96.30;;;;;;5090781;28;20040;-68
2021/07/09 07:04:15;;;;;;;2.40;2.20;;;15.70;96.30;;;;;;5090158;28;20027;-67
2021/07/09 07:06:41;;;;;;;2.45;2.25;;;15.70;96.30;;;;;;5089471;28;20031;-68
2021/07/09 07:09:06;;;;;;;2.78;2.58;;;15.70;96.40;;;;;;5091116;28;20095;-68
2021/07/09 07:11:32;;;;;;;2.67;2.47;;;15.70;96.40;;;;;;5090095;28;20066;-68
2021/07/09 07:13:58;;;;;;;4.35;3.90;;;15.70;96.30;;;;;;5089213;28;20031;-68
2021/07/09 07:16:23;;;;;;;3.65;2.72;;;15.70;96.30;;;;;;5078993;28;20024;-66
2021/07/09 07:18:49;;;;;;;3.30;2.88;;;15.70;96.40;;;;;;5089938;28;20071;-67
2021/07/09 07:21:14;;;;;;;3.95;3.47;;;15.70;96.40;;;;;;5090403;28;20023;-72
2021/07/09 07:23:40;;;;;;;3.28;3.08;;;15.70;96.40;;;;;;5090536;28;20035;-65
2021/07/09 07:26:06;;;;;;;3.83;3.28;;;15.70;96.40;;;;;;5086724;28;20077;-67
2021/07/09 07:28:32;;;;;;;3.13;2.92;;;15.70;96.40;;;;;;5094427;28;20028;-72
2021/07/09 07:30:58;;;;;;;2.30;2.20;;;15.70;96.50;;;;;;5094182;28;20020;-70
2021/07/09 07:33:24;;;;;;;2.65;2.22;;;15.70;96.40;;;;;;5092108;28;20019;-67
2021/07/09 07:35:50;;;;;;;2.40;2.20;;;15.70;96.40;;;;;;5068321;28;20088;-68
2021/07/09 07:38:16;;;;;;;2.70;2.50;;;15.70;96.40;;;;;;5090846;28;20065;-69
2021/07/09 07:40:41;;;;;;;2.15;1.95;;;15.70;96.50;;;;;;5070589;28;20028;-68
2021/07/09 07:43:07;;;;;;;2.10;2.00;;;15.70;96.50;;;;;;5063937;28;20036;-68
2021/07/09 07:45:33;;;;;;;2.03;1.92;;;15.70;96.40;;;;;;5089468;28;20024;-68
2021/07/09 07:47:59;;;;;;;2.03;1.88;;;15.70;96.40;;;;;;5089732;28;20030;-68
2021/07/09 07:50:27;;;;;;;2.38;1.80;;;15.70;96.40;;;;;;5071169;28;20411;-68
2021/07/09 07:52:53;;;;;;;1.92;1.77;;;15.60;96.40;;;;;;5072198;28;20051;-68
2021/07/09 07:55:19;;;;;;;2.30;2.10;;;15.70;96.40;;;;;;5088244;28;20063;-68
2021/07/09 07:57:44;;;;;;;1.95;1.85;;;15.60;96.30;;;;;;5089625;28;20040;-68
2021/07/09 08:00:11;;;;;;;2.72;2.10;;;15.60;96.40;;;;;;5089613;28;20016;-68
2021/07/09 08:02:37;;;;;;;2.65;2.20;;;15.60;96.40;;;;;;5090295;28;20028;-68
2021/07/09 08:05:04;;;;;;;2.63;2.40;;;15.60;96.40;;;;;;5085376;28;20077;-69
2021/07/09 08:07:30;;;;;;;2.70;2.50;;;15.60;96.40;;;;;;5088492;28;20020;-69
2021/07/09 08:09:55;;;;;;;3.10;2.80;;;15.60;96.40;;;;;;5089418;28;20031;-68
2021/07/09 08:12:21;;;;;;;3.38;2.97;;;15.60;96.30;;;;;;5089643;28;20476;-68
2021/07/09 08:14:46;;;;;;;3.17;2.97;;;15.60;96.40;;;;;;5089226;28;20479;-68
2021/07/09 08:17:12;;;;;;;3.75;3.35;;;15.60;96.40;;;;;;5071412;28;20028;-69
2021/07/09 08:19:37;;;;;;;5.03;3.50;;;15.50;96.30;;;;;;5089722;28;20055;-68
2021/07/09 08:22:03;;;;;;;4.45;4.05;;;15.50;96.40;;;;;;5089409;28;20036;-69
2021/07/09 08:24:29;;;;;;;6.38;4.85;;;15.50;96.40;;;;;;5089343;28;20487;-69
2021/07/09 08:26:54;;;;;;;8.48;7.32;;;15.60;96.50;;;;;;5088899;28;20161;-69
2021/07/09 08:29:20;;;;;;;6.38;5.78;;;15.60;96.70;;;;;;5089778;28;20077;-69
2021/07/09 08:31:46;;;;;;;7.13;6.43;;;15.60;96.40;;;;;;5093477;28;20026;-68
2021/07/09 08:34:11;;;;;;;8.13;6.40;;;15.60;96.40;;;;;;5071517;28;20056;-68
2021/07/09 08:36:37;;;;;;;8.95;7.35;;;15.60;96.40;;;;;;5091949;28;20017;-69
2021/07/09 08:39:04;;;;;;;9.23;8.15;;;15.70;96.50;;;;;;5093022;28;20031;-68
2021/07/09 08:41:29;;;;;;;10.02;7.95;;;15.70;96.40;;;;;;5092836;28;20046;-68
2021/07/09 08:43:55;;;;;;;10.27;9.00;;;15.80;96.40;;;;;;5088216;28;20016;-68
2021/07/09 08:46:23;;;;;;;11.93;9.70;;;15.80;96.30;;;;;;5094508;28;20531;-69
2021/07/09 08:48:49;;;;;;;10.20;8.77;;;15.80;96.40;;;;;;5074606;28;20077;-69
2021/07/09 08:51:15;;;;;;;11.98;10.07;;;15.70;96.30;;;;;;5090483;28;20043;-69
2021/07/09 08:53:41;;;;;;;13.65;10.05;;;15.70;96.30;;;;;;5092726;28;20480;-69
2021/07/09 08:56:06;;;;;;;13.20;9.85;;;15.80;96.40;;;;;;5091405;28;20047;-69
2021/07/09 08:58:33;;;;;;;12.70;10.05;;;15.80;96.30;;;;;;5092289;28;20039;-69
2021/07/09 09:00:58;;;;;;;11.05;9.85;;;15.80;96.30;;;;;;5092992;28;20028;-69
2021/07/09 09:03:26;;;;;;;12.95;9.82;;;15.80;96.40;;;;;;5092399;28;20028;-69
2021/07/09 09:05:59;;;;;;;15.20;9.77;;;15.80;96.30;;;;;;5087759;28;20136;-69
2021/07/09 09:08:24;;;;;;;11.57;10.20;;;15.80;96.40;;;;;;5073777;28;20028;-68
2021/07/09 09:10:53;;;;;;;13.05;10.30;;;15.90;96.50;;;;;;5092020;28;20436;-68
2021/07/09 09:13:27;;;;;;;15.98;10.73;;;15.90;96.60;;;;;;5091953;28;20484;-69
2021/07/09 09:16:01;;;;;;;12.23;10.63;;;15.90;96.50;;;;;;5091707;28;20040;-69
2021/07/09 09:18:30;;;;;;;12.18;10.10;;;15.90;96.50;;;;;;5092834;28;20063;-68
2021/07/09 09:21:20;;;;;;;13.85;10.50;;;15.90;96.40;;;;;;5091905;28;20020;-68
2021/07/09 09:23:51;;;;;;;11.63;9.43;;;15.90;96.40;;;;;;5092186;28;20513;-68
2021/07/09 09:26:38;;;;;;;13.57;10.17;;;15.90;96.40;;;;;;5073161;28;20047;-68
2021/07/09 09:29:04;;;;;;;12.60;9.50;;;15.90;96.40;;;;;;5074586;28;20354;-69
2021/07/09 09:31:37;;;;;;;11.30;10.13;;;15.90;96.40;;;;;;5074073;28;20035;-68
2021/07/09 09:34:04;;;;;;;11.13;9.15;;;15.90;96.40;;;;;;5086305;28;20031;-68
2021/07/09 09:36:30;;;;;;;12.60;9.90;;;15.90;96.40;;;;;;5089117;28;20028;-68
2021/07/09 09:38:59;;;;;;;11.80;10.10;;;15.90;96.30;;;;;;5091927;28;20507;-68
2021/07/09 09:41:25;;;;;;;13.13;10.23;;;15.90;96.40;;;;;;5091578;28;20047;-68
2021/07/09 09:43:51;;;;;;;14.25;11.18;;;15.90;96.30;;;;;;5070745;28;20024;-68
2021/07/09 09:46:26;;;;;;;13.10;10.55;;;15.80;96.30;;;;;;5072254;28;20031;-68
2021/07/09 09:48:51;;;;;;;14.40;11.30;;;15.90;96.50;;;;;;5081210;28;20401;-68
2021/07/09 09:51:34;;;;;;;13.35;10.80;;;15.90;96.50;;;;;;5080306;28;20027;-68
2021/07/09 09:54:02;;;;;;;12.43;11.10;;;15.90;96.60;;;;;;5091087;28;20028;-68
2021/07/09 09:56:32;;;;;;;12.40;10.43;;;16.00;96.50;;;;;;5090674;28;20039;-67
2021/07/09 09:59:15;;;;;;;12.05;10.43;;;16.00;96.50;;;;;;5092064;28;20059;-68
2021/07/09 10:02:02;;;;;;;11.20;10.00;;;16.00;96.60;;;;;;5091899;28;20219;-66
2021/07/09 10:04:29;;;;;;;13.93;10.32;;;16.00;96.50;;;;;;5083034;28;20049;-69
2021/07/09 10:06:56;;;;;;;12.20;10.77;;;16.00;96.40;;;;;;5084679;28;20043;-67
2021/07/09 10:09:23;;;;;;;11.50;9.98;;;16.10;96.40;;;;;;5090813;28;20028;-67
2021/07/09 10:11:50;;;;;;;11.55;10.18;;;16.10;96.40;;;;;;5089617;28;20120;-69
2021/07/09 10:14:18;;;;;;;12.45;10.15;;;16.10;96.40;;;;;;5097179;28;20089;-68
2021/07/09 10:16:49;;;;;;;14.02;10.80;;;16.00;96.40;;;;;;5084831;28;20031;-67
2021/07/09 10:19:28;;;;;;;15.48;11.38;;;16.00;96.50;;;;;;5074165;28;20020;-67
2021/07/09 10:21:54;;;;;;;13.65;11.65;;;16.00;96.50;;;;;;5089649;28;20068;-67
2021/07/09 10:24:20;;;;;;;13.48;11.55;;;16.00;96.50;;;;;;5091207;28;20024;-68
2021/07/09 10:26:53;;;;;;;14.70;12.27;;;16.00;96.60;;;;;;5089833;28;20110;-67
2021/07/09 10:29:21;;;;;;;11.90;10.68;;;16.10;96.60;;;;;;5090759;28;20487;-67
2021/07/09 10:31:48;;;;;;;15.70;11.75;;;16.10;96.50;;;;;;5090837;28;20020;-68
2021/07/09 10:34:27;;;;;;;13.90;11.55;;;16.10;96.50;;;;;;5091089;28;20095;-69
2021/07/09 10:37:08;;;;;;;15.68;12.38;;;16.20;96.60;;;;;;5089976;28;20394;-68
2021/07/09 10:39:39;;;;;;;15.40;12.30;;;16.20;96.40;;;;;;5090812;28;20027;-68
2021/07/09 10:42:41;;;;;;;13.40;11.82;;;16.20;96.40;;;;;;5072374;28;20686;-68
2021/07/09 10:45:19;;;;;;;13.65;11.07;;;16.20;96.40;;;;;;5070946;28;20123;-68
2021/07/09 10:47:45;;;;;;;13.73;12.23;;;16.20;96.40;;;;;;5073744;28;20353;-68
2021/07/09 10:50:25;;;;;;;14.52;11.98;;;16.30;96.40;;;;;;5090130;28;20065;-68
2021/07/09 10:52:57;;;;;;;15.10;12.38;;;16.40;96.50;;;;;;5083482;28;20105;-68
2021/07/09 10:55:29;;;;;;;16.40;12.20;;;16.50;96.40;;;;;;5071305;28;20028;-67
2021/07/09 10:58:07;;;;;;;13.93;12.15;;;16.60;96.40;;;;;;5090623;28;20553;-68
2021/07/09 11:01:10;;;;;;;16.08;12.35;;;16.70;96.30;;;;;;5090486;28;20074;-68
2021/07/09 11:03:44;;;;;;;15.60;12.25;;;16.80;96.40;;;;;;5072823;28;20043;-67
2021/07/09 11:06:19;;;;;;;17.15;13.48;;;16.90;96.20;;;;;;5080465;28;20071;-68
2021/07/09 11:08:53;;;;;;;18.35;13.52;;;17.00;96.20;;;;;;5081195;28;20032;-68
2021/07/09 11:11:29;;;;;;;15.30;12.90;;;17.10;96.10;;;;;;5089711;28;20024;-68
2021/07/09 11:14:15;;;;;;;14.50;12.55;;;17.10;96.10;;;;;;5090510;28;20028;-68
2021/07/09 11:16:42;;;;;;;15.93;13.13;;;17.20;96.10;;;;;;5070637;28;20035;-69
2021/07/09 11:19:27;;;;;;;15.65;13.20;;;17.20;96.00;;;;;;5090477;28;20443;-68
2021/07/09 11:21:55;;;;;;;14.82;12.15;;;17.30;96.00;;;;;;5085633;28;20116;-69
2021/07/09 11:24:29;;;;;;;17.13;12.15;;;17.40;96.00;;;;;;5089887;28;20024;-68
2021/07/09 11:27:13;;;;;;;14.45;11.45;;;17.40;96.00;;;;;;5089846;28;20814;-68
2021/07/09 11:29:41;;;;;;;14.90;12.20;;;17.50;96.10;;;;;;5087740;28;20062;-66
2021/07/09 11:32:17;;;;;;;12.50;11.20;;;17.60;95.90;;;;;;5090283;28;20035;-67
2021/07/09 11:34:55;;;;;;;12.90;10.65;;;17.70;95.90;;;;;;5089267;28;20035;-67
2021/07/09 11:37:25;;;;;;;16.67;11.23;;;17.80;95.90;;;;;;5071640;28;20116;-67
2021/07/09 11:39:57;;;;;;;17.58;12.10;;;17.90;95.70;;;;;;5090712;28;20407;-67
2021/07/09 11:42:28;;;;;;;11.68;10.48;;;18.00;95.60;;;;;;5087796;28;20126;-67
2021/07/09 11:44:57;;;;;;;14.38;10.15;;;18.10;95.50;;;;;;5085383;28;20024;-67
2021/07/09 11:47:36;;;;;;;10.73;9.57;;;18.10;95.40;;;;;;5089798;28;20020;-67
2021/07/09 11:50:13;;;;;;;13.82;10.70;;;18.20;95.30;;;;;;5072257;28;20048;-67
2021/07/09 11:52:44;;;;;;;13.25;10.38;;;18.20;95.20;;;;;;5088726;28;20036;-68
2021/07/09 11:55:12;;;;;;;12.65;10.18;;;18.30;95.20;;;;;;5070035;28;20086;-66
2021/07/09 11:57:41;;;;;;;10.85;9.75;;;18.50;95.10;;;;;;5071855;28;20399;-67
2021/07/09 12:00:13;;;;;;;11.95;10.02;;;18.60;95.10;;;;;;5089826;28;20676;-68
2021/07/09 12:02:39;;;;;;;;;;;18.90;95.10;;;;;;5085419;28;20020;-67
2021/07/09 12:05:07;;;;;;;12.10;8.93;;;19.00;95.00;;;;;;5090971;28;19934;-67
2021/07/09 12:07:42;;;;;;;11.32;9.50;;;19.20;94.90;;;;;;5093838;28;20119;-70
2021/07/09 12:10:13;;;;;;;10.85;8.88;;;19.30;94.70;;;;;;5093545;28;20020;-72
2021/07/09 12:12:49;;;;;;;11.38;8.95;;;19.40;94.40;;;;;;5076359;28;20395;-71
2021/07/09 12:15:20;;;;;;;11.23;9.40;;;19.50;94.30;;;;;;5094516;28;20093;-69
2021/07/09 12:17:51;;;;;;;11.02;8.57;;;19.50;94.10;;;;;;5093521;28;20452;-69
2021/07/09 12:20:24;;;;;;;12.60;8.60;;;19.50;93.90;;;;;;5093327;28;20127;-69
2021/07/09 12:22:57;;;;;;;12.65;8.68;;;19.50;93.60;;;;;;5075442;28;20089;-69
2021/07/09 12:25:29;;;;;;;11.15;8.40;;;19.40;93.50;;;;;;5092300;28;21959;-71
2021/07/09 12:28:06;;;;;;;10.57;8.48;;;19.40;93.50;;;;;;5093620;28;20028;-72
2021/07/09 12:30:47;;;;;;;11.75;8.18;;;19.40;93.50;;;;;;5073611;28;20032;-70
2021/07/09 12:33:33;;;;;;;10.07;7.35;;;19.50;93.50;;;;;;5087098;28;20103;-70
2021/07/09 12:36:08;;;;;;;12.15;8.55;;;19.60;93.30;;;;;;5092214;28;20174;-69
2021/07/09 12:38:39;;;;;;;11.50;8.57;;;19.60;93.00;;;;;;5093363;28;20080;-70
2021/07/09 12:41:07;;;;;;;9.95;7.95;;;19.70;93.00;;;;;;5075495;28;20032;-70
2021/07/09 12:43:49;;;;;;;10.82;7.18;;;19.80;93.10;;;;;;5088273;28;20073;-67
2021/07/09 12:46:19;;;;;;;8.60;7.80;;;20.00;93.10;;;;;;5087155;28;20439;-67
2021/07/09 12:48:56;;;;;;;12.68;6.43;;;20.20;93.20;;;;;;5093065;28;20027;-67